Latest METARs, TAFs and NOTAMs for ETSI


---------------------------------------------------------------------------
	(OBSERVATIONS)
ETSI 221320Z 28014KT 9999 -RA FEW016 BKN020 06/04 Q1014 WHT BLU
    TEMPO WHT=
ETSI 221220Z 27013G23KT 9999 -RA FEW015 BKN022 06/04 Q1014 WHT
    BLU TEMPO WHT=
ETSI 221120Z 28016G26KT 9999 FEW015 BKN024 BKN045 07/04 Q1014
    WHT BLU TEMPO WHT=
---------------------------------------------------------------------------
	(FC)
TAF ETSI 221324Z 2214/2223 27015G25KT 9999 -RA SCT015 BKN035
          TEMPO  2214/2223 27020G30KT 5000  RA SCT010 OVC014=
---------------------------------------------------------------------------
	(TERMINAL AREA FORECAST)
ETSI 221324Z 2214/2223 27015G25KT 9999 -RA SCT015 BKN035
    TEMPO  2214/2223 27020G30KT 5000  RA SCT010 OVC014=
---------------------------------------------------------------------------
	(NOTAMS)


ETSI E1089/14 SPECIAL ACTIVITY AREA ESTABLISHED FOR GLIDER AEROBATICS
    RADIUS 3NM CENTERED AT 4842N 01132E INGOLSTADT/MANCHING AIRFIELD.
    GND - 6000FT AMSL, SAT-SUN 0700-SS, AUG 15 AND OCT 03 0700-SS,
    27 JUL 07:00 2014 UNTIL 25 OCT 16:07 2014. CREATED: 07 MAY
    08:22 2014

ETSI E1091/14 SPECIAL ACTIVITY AREA ESTABLISHED FOR GLIDER AEROBATICS
    RADIUS 3NM CENTERED AT 4842N 01132E INGOLSTADT/MANCHING AIRFIELD.
    GND - 6000FT AMSL, SAT-SUN 0700-SS, DEC 25 26 0700-SS, 26
    OCT 07:00 2014 UNTIL 28 DEC 15:14 2014. CREATED: 07 MAY 09:44
    2014

ETSI P5327/14 AD ETSI: LVTO-PROCEDURE SUSPENDED. 25 AUG 14:58
    2014 UNTIL 21 NOV 10:00 2014. CREATED: 25 AUG 15:04 2014

ETSI P5328/14 AD ETSI: NO SRA POSSIBLE. 25 AUG 15:01 2014 UNTIL
    21 NOV 10:00 2014. CREATED: 25 AUG 15:05 2014

ETSI P5346/14 AD ETSI: PAR RWY25R/07L OUT OF SERVICE. 26 AUG
    06:15 2014 UNTIL 21 NOV 10:00 2014. CREATED: 26 AUG 06:19
    2014

ETSI P6270/14 AD ETSI: PAR RWY25L/07R OUT OF SERVICE. 02 OCT
    15:00 2014 UNTIL 23 DEC 13:00 2014. CREATED: 01 OCT 12:23
    2014

ETSI P6596/14 AD ETSI: APPROACH FLASH LIGHTING SYSTEM(AFLS) RWY07R
    OUT OF SERVICE. 16 OCT 06:44 2014 UNTIL 24 OCT 12:00 2014.
    CREATED: 16 OCT 06:58 2014

ETSI P6663/14 AD ETSI: NO RADAR SERVICE AVAILABLE DUE TO LACK
    OF PERSONNEL. 27 OCT 05:00 2014 UNTIL 31 OCT 12:00 2014.
    CREATED: 17 OCT 08:15 2014

ETSI P6710/14 AD ETSI: RWY25L/07R CLOSED. 20 OCT 13:08 2014 UNTIL
    24 OCT 12:00 2014. CREATED: 20 OCT 13:14 2014

ETSI P6711/14 AD ETSI: NO ALTERNATE. 20 OCT 13:09 2014 UNTIL
    24 OCT 12:00 2014. CREATED: 20 OCT 13:16 2014

ETSI P6712/14 AD ETSI: NO PRACT APCH. 20 OCT 13:13 2014 UNTIL
    24 OCT 12:00 2014. CREATED: 20 OCT 13:17 2014

ETSI P6714/14 AD ETSI: TAKEOFF OF MIL JETS ONLY BTWN: MON-THU:
    0700-1000 AND 1130-1500, FRI: 0700-1000. 20 OCT 13:14 2014
    UNTIL 24 OCT 12:00 2014. CREATED: 20 OCT 13:19 2014

ETSI P6716/14 AD ETSI: NO APPROACH END ARRESTMENT ON RWY07L.
    20 OCT 13:17 2014 UNTIL 24 OCT 12:00 2014. CREATED: 20 OCT
    13:21 2014

ETSI P6719/14 AD ETSI: RWY25R/07L VFR ONLY. 24 OCT 12:00 2014
    UNTIL 19 DEC 13:00 2014. CREATED: 20 OCT 13:27 2014

ETSI P6720/14 AD ETSI: 24HRS PPR. 20 OCT 13:25 2014 UNTIL 24
    OCT 12:00 2014. CREATED: 20 OCT 13:28 2014

ETSI P6762/14 AD ETSI: AERODROME CLOSED (EXCEPT SCHEDULED CIVIL
    TRAFFIC. 27 OCT 08:00 2014 UNTIL 27 OCT 16:00 2014. CREATED:
    22 OCT 06:31 2014

ETSI P6763/14 AD ETSI: AERODROME CLOSED (EXCEPT SCHEDULED CIVIL
    TRAFFIC. 31 OCT 08:00 2014 UNTIL 04 NOV 08:00 2014. CREATED:
    22 OCT 06:35 2014

ETSI P6772/14 AD ETSI: AD CLOSED (EXCEPT FOR CIVIL AIR TRAFFFIC).
    22 OCT 12:00 2014 UNTIL 22 OCT 15:00 2014. CREATED: 22 OCT
    12:02 2014

---------------------------------------------------------------------------